Share

Climbing Hill, IA (51015)

Sioux Gateway (KSUX) Elev 1102 ft | 42.39 °N, 96.38 °W | Change Station

Current weather conditions updated 38 minutes ago

Haze
Haze
53 °F
Feels Like 53 °F
N
13
Wind Variable Wind from SSE
Sunrise 6:38 AM
Sunset 8:09 PM
Moon Waning Gibbous

Today is forecast to be Much Warmer than yesterday.

Pressure 30.26 in
Visibility 6.0 miles
Clouds Clear
Dew Point 34 °F
Humidity 48%
Rainfall 0.00 in
Snow Depth Not available.
UV 6 out of 16
Pollen 10.30 out of 12
Air Quality Not available.
Flu Activity Sporadic
METAR KSUX 181552Z 15011KT 6SM HZ CLR 12/01 A3024 RMK AO2 SLP245 T01170011

More Conditions Fewer Conditions

Pressure 30.26 in
Visibility 6.0 miles
Clouds Clear
Dew Point 34 °F
Humidity 48%
Rainfall 0.00 in
Snow Depth Not available.
UV 6 out of 16
Pollen 10.30 out of 12
Air Quality Not available.
Flu Activity Sporadic
METAR KSUX 181552Z 15011KT 6SM HZ CLR 12/01 A3024 RMK AO2 SLP245 T01170011

More Conditions Fewer Conditions

10-Day Forecast

Almanac

Astronomy

Apr. 18, 2014 Rise Set
Actual Time 6:38 AM CDT 8:09 PM CDT
Civil Twilight 6:09 AM CDT 8:38 PM CDT
Nautical Twilight 5:33 AM CDT 9:14 PM CDT
Astronomical Twilight 4:56 AM CDT 9:52 PM CDT
Moon 11:58 PM CDT 8:59 AM CDT
Length of Visible Light 14h 29m
Length of Day
13h 30m
Tomorrow will be 2m 41s longer.
Waning Gibbous, 87% of the Moon is Illuminated
Today
Waning Gibbous
Apr 22
Last Quarter
Apr 29
New
May 6
First Quarter
May 14
Full

Today's Extremes

State Highs State Lows

Community

  • What's for Lunch?
    What's for Lunch?
  • SUNRISE THROUGH THE TREES.
    SUNRISE THROUGH THE TREES.
  • Dog Wood Blossoms
    Dog Wood Blossoms
  • Morning Light
    Morning Light
  • New Day
    New Day

WunderPhotos

Upload Photos

1,702,397 photos uploaded!

Nearby

Snow Depth

Station Depth Elevation
No new snow has been reported.

Coastal Water Temperatures

Place Temperature
No Stations Reporting

Earthquake Activity

City Distance Mag. Time & Date
No recent earthquake activity has been reported nearby.
Minimum magnitude displayed is 2.5.

Nearby Weather Stations

Station Location Temp. Windchill Dew Point Humidity Wind Precip. Elev Updated Type
HADS WEST FORK DITCH AT HORNICK IA, Rodney, IA 37 °F 37 °F - - North  at  - 0.00 in / hr 1045 ft 8:00 AM CDT MADIS
MesoWest SALIX , Salix, IA 31 °F 31 °F - - North  at  - 0.00 in / hr 1077 ft 7:40 AM CDT MADIS
The Danbury Review, Danbury, IA 54.7 °F - 36 °F 50% SSE  at  4.0 mph 0.00 in / hr 1161 ft 11:25 AM CDT Normal
SSW Union, Kingsley, IA 52.3 °F - 35 °F 52% SSE  at  20.0 mph 0.00 in / hr 1378 ft 11:20 AM CDT Normal
Northside Jones House, Sioux City, IA 57.0 °F - 36 °F 46% SW  at  5.0 mph 0.00 in / hr 1165 ft 11:29 AM CDT Normal

Show More Stations Show Fewer Stations

What do you think?

We're not finished. Please let us know what you like, what you don't like, and what you are still missing.